sensor_id;sensor_type;location;lat;lon;timestamp;P1;durP1;ratioP1;P2;durP2;ratioP2
60718;SDS011;46567;51.660;5.824;2023-03-23T00:00:30;4.8;;;2.8;;
60718;SDS011;46567;51.660;5.824;2023-03-23T00:05:30;5.5;;;2.4;;
60718;SDS011;46567;51.660;5.824;2023-03-23T00:10:30;5.1;;;2.7;;
60718;SDS011;46567;51.660;5.824;2023-03-23T00:15:30;3.2;;;2.2;;
60718;SDS011;46567;51.660;5.824;2023-03-23T00:20:30;2.9;;;2.4;;
60718;SDS011;46567;51.660;5.824;2023-03-23T00:25:30;4.8;;;2.5;;
60718;SDS011;46567;51.660;5.824;2023-03-23T00:30:30;3.1;;;2.2;;
60718;SDS011;46567;51.660;5.824;2023-03-23T00:35:30;4.8;;;2.6;;
60718;SDS011;46567;51.660;5.824;2023-03-23T00:40:30;4.3;;;2.9;;
60718;SDS011;46567;51.660;5.824;2023-03-23T00:45:30;4.0;;;2.7;;
60718;SDS011;46567;51.660;5.824;2023-03-23T00:50:30;4.2;;;3.0;;
60718;SDS011;46567;51.660;5.824;2023-03-23T00:55:30;3.4;;;2.5;;
60718;SDS011;46567;51.660;5.824;2023-03-23T01:00:30;3.9;;;2.6;;
60718;SDS011;46567;51.660;5.824;2023-03-23T01:05:33;2.9;;;2.4;;
60718;SDS011;46567;51.660;5.824;2023-03-23T01:10:30;4.9;;;2.7;;
60718;SDS011;46567;51.660;5.824;2023-03-23T01:15:30;3.8;;;2.6;;
60718;SDS011;46567;51.660;5.824;2023-03-23T01:20:30;3.7;;;2.7;;
60718;SDS011;46567;51.660;5.824;2023-03-23T01:25:31;4.3;;;2.6;;
60718;SDS011;46567;51.660;5.824;2023-03-23T01:30:30;4.0;;;2.6;;
60718;SDS011;46567;51.660;5.824;2023-03-23T01:35:30;3.5;;;2.6;;
60718;SDS011;46567;51.660;5.824;2023-03-23T01:40:30;3.2;;;2.5;;
60718;SDS011;46567;51.660;5.824;2023-03-23T01:45:36;3.3;;;2.8;;
60718;SDS011;46567;51.660;5.824;2023-03-23T01:50:36;5.7;;;2.9;;
60718;SDS011;46567;51.660;5.824;2023-03-23T01:55:30;3.4;;;2.5;;
60718;SDS011;46567;51.660;5.824;2023-03-23T02:00:30;5.0;;;2.6;;
60718;SDS011;46567;51.660;5.824;2023-03-23T02:05:32;3.3;;;2.6;;
60718;SDS011;46567;51.660;5.824;2023-03-23T02:10:30;3.7;;;2.8;;
60718;SDS011;46567;51.660;5.824;2023-03-23T02:15:39;4.4;;;2.9;;
60718;SDS011;46567;51.660;5.824;2023-03-23T02:21:19;4.3;;;2.8;;
60718;SDS011;46567;51.660;5.824;2023-03-23T02:27:26;3.9;;;2.7;;
60718;SDS011;46567;51.660;5.824;2023-03-23T02:33:49;3.8;;;2.4;;
60718;SDS011;46567;51.660;5.824;2023-03-23T02:37:06;4.1;;;2.9;;
60718;SDS011;46567;51.660;5.824;2023-03-23T02:40:32;4.6;;;2.7;;
60718;SDS011;46567;51.660;5.824;2023-03-23T02:45:30;4.7;;;2.9;;
60718;SDS011;46567;51.660;5.824;2023-03-23T02:50:31;4.0;;;2.6;;
60718;SDS011;46567;51.660;5.824;2023-03-23T02:55:30;3.4;;;2.4;;
60718;SDS011;46567;51.660;5.824;2023-03-23T03:00:30;5.8;;;2.4;;
60718;SDS011;46567;51.660;5.824;2023-03-23T03:05:49;3.8;;;2.6;;
60718;SDS011;46567;51.660;5.824;2023-03-23T03:10:31;5.5;;;2.6;;
60718;SDS011;46567;51.660;5.824;2023-03-23T03:15:33;3.0;;;2.5;;
60718;SDS011;46567;51.660;5.824;2023-03-23T03:20:30;3.8;;;2.6;;
60718;SDS011;46567;51.660;5.824;2023-03-23T03:25:30;3.4;;;2.7;;
60718;SDS011;46567;51.660;5.824;2023-03-23T03:30:30;2.9;;;2.3;;
60718;SDS011;46567;51.660;5.824;2023-03-23T03:35:31;4.4;;;3.0;;
60718;SDS011;46567;51.660;5.824;2023-03-23T03:40:30;4.1;;;3.4;;
60718;SDS011;46567;51.660;5.824;2023-03-23T03:45:30;4.0;;;2.7;;
60718;SDS011;46567;51.660;5.824;2023-03-23T03:50:30;3.7;;;2.8;;
60718;SDS011;46567;51.660;5.824;2023-03-23T03:55:31;4.5;;;3.2;;
60718;SDS011;46567;51.660;5.824;2023-03-23T04:00:30;4.5;;;2.7;;
60718;SDS011;46567;51.660;5.824;2023-03-23T04:05:30;4.1;;;2.8;;
60718;SDS011;46567;51.660;5.824;2023-03-23T04:10:32;3.7;;;2.7;;
60718;SDS011;46567;51.660;5.824;2023-03-23T04:15:30;3.8;;;2.4;;
60718;SDS011;46567;51.660;5.824;2023-03-23T04:20:30;4.3;;;2.5;;
60718;SDS011;46567;51.660;5.824;2023-03-23T04:25:30;4.2;;;2.4;;
60718;SDS011;46567;51.660;5.824;2023-03-23T04:30:30;4.0;;;2.4;;
60718;SDS011;46567;51.660;5.824;2023-03-23T04:35:30;5.6;;;2.4;;
60718;SDS011;46567;51.660;5.824;2023-03-23T04:40:30;3.3;;;2.0;;
60718;SDS011;46567;51.660;5.824;2023-03-23T04:45:30;5.6;;;2.1;;
60718;SDS011;46567;51.660;5.824;2023-03-23T04:50:31;4.7;;;1.8;;
60718;SDS011;46567;51.660;5.824;2023-03-23T04:55:31;8.0;;;2.3;;
60718;SDS011;46567;51.660;5.824;2023-03-23T05:00:30;4.8;;;2.0;;
60718;SDS011;46567;51.660;5.824;2023-03-23T05:05:30;4.2;;;1.5;;
60718;SDS011;46567;51.660;5.824;2023-03-23T05:10:30;8.0;;;1.6;;
60718;SDS011;46567;51.660;5.824;2023-03-23T05:15:30;4.1;;;1.4;;
60718;SDS011;46567;51.660;5.824;2023-03-23T05:20:30;4.1;;;1.7;;
60718;SDS011;46567;51.660;5.824;2023-03-23T05:25:30;4.2;;;1.4;;
60718;SDS011;46567;51.660;5.824;2023-03-23T05:30:30;5.9;;;1.4;;
60718;SDS011;46567;51.660;5.824;2023-03-23T05:35:30;4.9;;;1.6;;
60718;SDS011;46567;51.660;5.824;2023-03-23T05:40:30;6.3;;;1.5;;
60718;SDS011;46567;51.660;5.824;2023-03-23T05:45:30;4.5;;;1.6;;
60718;SDS011;46567;51.660;5.824;2023-03-23T05:50:30;7.7;;;1.8;;
60718;SDS011;46567;51.660;5.824;2023-03-23T05:55:30;4.2;;;1.4;;
60718;SDS011;46567;51.660;5.824;2023-03-23T06:00:30;7.7;;;2.0;;
60718;SDS011;46567;51.660;5.824;2023-03-23T06:05:31;4.6;;;1.9;;
60718;SDS011;46567;51.660;5.824;2023-03-23T06:10:30;3.4;;;1.9;;
60718;SDS011;46567;51.660;5.824;2023-03-23T06:15:31;6.5;;;2.1;;
60718;SDS011;46567;51.660;5.824;2023-03-23T06:20:30;4.4;;;1.9;;
60718;SDS011;46567;51.660;5.824;2023-03-23T06:25:30;6.2;;;1.9;;
60718;SDS011;46567;51.660;5.824;2023-03-23T06:30:30;5.8;;;2.1;;
60718;SDS011;46567;51.660;5.824;2023-03-23T06:35:30;5.0;;;2.0;;
60718;SDS011;46567;51.660;5.824;2023-03-23T06:40:30;5.2;;;2.2;;
60718;SDS011;46567;51.660;5.824;2023-03-23T06:45:31;6.2;;;2.1;;
60718;SDS011;46567;51.660;5.824;2023-03-23T06:50:30;7.3;;;2.2;;
60718;SDS011;46567;51.660;5.824;2023-03-23T06:55:30;4.6;;;1.9;;
60718;SDS011;46567;51.660;5.824;2023-03-23T07:00:30;6.1;;;1.9;;
60718;SDS011;46567;51.660;5.824;2023-03-23T07:05:32;6.5;;;1.9;;
60718;SDS011;46567;51.660;5.824;2023-03-23T07:10:30;6.0;;;1.9;;
60718;SDS011;46567;51.660;5.824;2023-03-23T07:15:30;5.9;;;1.9;;
60718;SDS011;46567;51.660;5.824;2023-03-23T07:20:31;6.9;;;2.3;;
60718;SDS011;46567;51.660;5.824;2023-03-23T07:25:30;6.2;;;1.8;;
60718;SDS011;46567;51.660;5.824;2023-03-23T07:30:30;5.3;;;2.1;;
60718;SDS011;46567;51.660;5.824;2023-03-23T07:35:30;4.4;;;2.0;;
60718;SDS011;46567;51.660;5.824;2023-03-23T07:40:30;7.1;;;1.6;;
60718;SDS011;46567;51.660;5.824;2023-03-23T07:45:31;4.2;;;1.6;;
60718;SDS011;46567;51.660;5.824;2023-03-23T07:55:30;5.1;;;1.4;;
60718;SDS011;46567;51.660;5.824;2023-03-23T08:00:30;2.6;;;1.2;;
60718;SDS011;46567;51.660;5.824;2023-03-23T08:05:30;2.9;;;1.2;;
60718;SDS011;46567;51.660;5.824;2023-03-23T08:15:30;1.0;;;0.5;;
60718;SDS011;46567;51.660;5.824;2023-03-23T08:20:30;1.5;;;0.6;;
60718;SDS011;46567;51.660;5.824;2023-03-23T08:25:30;3.3;;;0.7;;
60718;SDS011;46567;51.660;5.824;2023-03-23T08:30:30;1.8;;;0.7;;
60718;SDS011;46567;51.660;5.824;2023-03-23T08:35:30;2.0;;;0.7;;
60718;SDS011;46567;51.660;5.824;2023-03-23T08:40:30;2.4;;;0.8;;
60718;SDS011;46567;51.660;5.824;2023-03-23T08:45:30;2.7;;;1.3;;
60718;SDS011;46567;51.660;5.824;2023-03-23T08:50:30;2.3;;;0.9;;
60718;SDS011;46567;51.660;5.824;2023-03-23T08:55:30;2.3;;;0.9;;
60718;SDS011;46567;51.660;5.824;2023-03-23T09:00:30;3.4;;;1.0;;
60718;SDS011;46567;51.660;5.824;2023-03-23T09:05:30;1.9;;;0.8;;
60718;SDS011;46567;51.660;5.824;2023-03-23T09:10:30;1.4;;;0.7;;
60718;SDS011;46567;51.660;5.824;2023-03-23T09:15:30;3.1;;;0.8;;
60718;SDS011;46567;51.660;5.824;2023-03-23T09:20:30;1.8;;;0.8;;
60718;SDS011;46567;51.660;5.824;2023-03-23T09:25:30;1.9;;;0.9;;
60718;SDS011;46567;51.660;5.824;2023-03-23T09:30:32;1.6;;;0.7;;
60718;SDS011;46567;51.660;5.824;2023-03-23T09:35:31;3.3;;;1.0;;
60718;SDS011;46567;51.660;5.824;2023-03-23T09:40:43;3.1;;;0.9;;
60718;SDS011;46567;51.660;5.824;2023-03-23T09:46:12;2.6;;;0.9;;
60718;SDS011;46567;51.660;5.824;2023-03-23T09:50:32;4.4;;;1.2;;
60718;SDS011;46567;51.660;5.824;2023-03-23T09:55:31;2.9;;;0.9;;
60718;SDS011;46567;51.660;5.824;2023-03-23T10:00:34;4.0;;;0.9;;
60718;SDS011;46567;51.660;5.824;2023-03-23T10:05:37;3.4;;;0.9;;
60718;SDS011;46567;51.660;5.824;2023-03-23T10:10:33;2.8;;;0.9;;
60718;SDS011;46567;51.660;5.824;2023-03-23T10:15:34;2.3;;;0.9;;
60718;SDS011;46567;51.660;5.824;2023-03-23T10:20:42;3.4;;;1.0;;
60718;SDS011;46567;51.660;5.824;2023-03-23T10:25:31;5.3;;;1.2;;
60718;SDS011;46567;51.660;5.824;2023-03-23T10:30:31;3.5;;;1.0;;
60718;SDS011;46567;51.660;5.824;2023-03-23T10:35:34;2.9;;;1.1;;
60718;SDS011;46567;51.660;5.824;2023-03-23T10:40:31;3.2;;;1.0;;
60718;SDS011;46567;51.660;5.824;2023-03-23T10:45:30;4.9;;;1.1;;
60718;SDS011;46567;51.660;5.824;2023-03-23T10:50:31;3.5;;;1.3;;
60718;SDS011;46567;51.660;5.824;2023-03-23T10:55:40;4.4;;;1.5;;
60718;SDS011;46567;51.660;5.824;2023-03-23T11:00:31;3.9;;;1.4;;
60718;SDS011;46567;51.660;5.824;2023-03-23T11:05:34;4.6;;;1.3;;
60718;SDS011;46567;51.660;5.824;2023-03-23T11:10:35;4.4;;;1.4;;
60718;SDS011;46567;51.660;5.824;2023-03-23T11:15:32;5.7;;;1.6;;
60718;SDS011;46567;51.660;5.824;2023-03-23T11:20:33;4.5;;;1.0;;
60718;SDS011;46567;51.660;5.824;2023-03-23T11:25:30;3.0;;;1.4;;
60718;SDS011;46567;51.660;5.824;2023-03-23T11:30:31;5.9;;;1.6;;
60718;SDS011;46567;51.660;5.824;2023-03-23T11:35:31;4.6;;;1.4;;
60718;SDS011;46567;51.660;5.824;2023-03-23T11:40:31;2.9;;;1.2;;
60718;SDS011;46567;51.660;5.824;2023-03-23T11:45:31;6.0;;;1.6;;
60718;SDS011;46567;51.660;5.824;2023-03-23T11:50:38;5.6;;;1.5;;
60718;SDS011;46567;51.660;5.824;2023-03-23T11:55:35;5.6;;;1.3;;
60718;SDS011;46567;51.660;5.824;2023-03-23T12:00:31;4.6;;;1.3;;
60718;SDS011;46567;51.660;5.824;2023-03-23T12:06:27;4.4;;;1.2;;
60718;SDS011;46567;51.660;5.824;2023-03-23T12:11:55;4.2;;;1.0;;
60718;SDS011;46567;51.660;5.824;2023-03-23T12:16:36;4.6;;;1.4;;
60718;SDS011;46567;51.660;5.824;2023-03-23T12:22:06;2.1;;;1.1;;
60718;SDS011;46567;51.660;5.824;2023-03-23T12:26:49;2.4;;;1.0;;
60718;SDS011;46567;51.660;5.824;2023-03-23T12:31:47;2.3;;;1.1;;
60718;SDS011;46567;51.660;5.824;2023-03-23T12:36:37;4.6;;;1.4;;
60718;SDS011;46567;51.660;5.824;2023-03-23T12:41:41;3.0;;;1.2;;
60718;SDS011;46567;51.660;5.824;2023-03-23T12:46:08;3.5;;;1.2;;
60718;SDS011;46567;51.660;5.824;2023-03-23T12:50:35;4.0;;;1.3;;
60718;SDS011;46567;51.660;5.824;2023-03-23T12:55:45;6.6;;;1.8;;
60718;SDS011;46567;51.660;5.824;2023-03-23T13:00:33;4.6;;;1.6;;
60718;SDS011;46567;51.660;5.824;2023-03-23T13:05:53;7.0;;;1.5;;
60718;SDS011;46567;51.660;5.824;2023-03-23T13:10:42;5.4;;;1.4;;
60718;SDS011;46567;51.660;5.824;2023-03-23T13:15:33;6.7;;;1.5;;
60718;SDS011;46567;51.660;5.824;2023-03-23T13:21:00;4.2;;;1.5;;
60718;SDS011;46567;51.660;5.824;2023-03-23T13:25:48;7.3;;;1.8;;
60718;SDS011;46567;51.660;5.824;2023-03-23T13:30:31;6.0;;;1.6;;
60718;SDS011;46567;51.660;5.824;2023-03-23T13:35:33;6.5;;;1.7;;
60718;SDS011;46567;51.660;5.824;2023-03-23T13:40:31;5.1;;;1.5;;
60718;SDS011;46567;51.660;5.824;2023-03-23T13:45:45;6.3;;;1.6;;
60718;SDS011;46567;51.660;5.824;2023-03-23T13:50:31;5.8;;;1.4;;
60718;SDS011;46567;51.660;5.824;2023-03-23T13:55:48;5.7;;;1.8;;
60718;SDS011;46567;51.660;5.824;2023-03-23T14:00:36;5.5;;;1.6;;
60718;SDS011;46567;51.660;5.824;2023-03-23T14:05:36;4.6;;;1.7;;
60718;SDS011;46567;51.660;5.824;2023-03-23T14:10:31;8.4;;;1.9;;
60718;SDS011;46567;51.660;5.824;2023-03-23T14:15:37;3.2;;;1.3;;
60718;SDS011;46567;51.660;5.824;2023-03-23T14:20:31;4.4;;;1.2;;
60718;SDS011;46567;51.660;5.824;2023-03-23T14:25:31;3.6;;;1.8;;
60718;SDS011;46567;51.660;5.824;2023-03-23T14:30:34;2.4;;;1.2;;
60718;SDS011;46567;51.660;5.824;2023-03-23T14:35:34;7.6;;;1.4;;
60718;SDS011;46567;51.660;5.824;2023-03-23T14:40:31;5.1;;;1.5;;
60718;SDS011;46567;51.660;5.824;2023-03-23T14:45:31;5.1;;;1.7;;
60718;SDS011;46567;51.660;5.824;2023-03-23T14:50:36;3.3;;;1.4;;
60718;SDS011;46567;51.660;5.824;2023-03-23T14:55:31;4.3;;;1.3;;
60718;SDS011;46567;51.660;5.824;2023-03-23T15:00:32;3.1;;;1.5;;
60718;SDS011;46567;51.660;5.824;2023-03-23T15:05:32;5.1;;;1.7;;
60718;SDS011;46567;51.660;5.824;2023-03-23T15:10:31;4.7;;;2.1;;
60718;SDS011;46567;51.660;5.824;2023-03-23T15:15:31;4.2;;;1.5;;
60718;SDS011;46567;51.660;5.824;2023-03-23T15:20:46;6.6;;;1.8;;
60718;SDS011;46567;51.660;5.824;2023-03-23T15:25:35;5.3;;;1.6;;
60718;SDS011;46567;51.660;5.824;2023-03-23T15:30:36;5.1;;;2.0;;
60718;SDS011;46567;51.660;5.824;2023-03-23T15:35:33;6.2;;;2.1;;
60718;SDS011;46567;51.660;5.824;2023-03-23T15:40:32;4.0;;;1.8;;
60718;SDS011;46567;51.660;5.824;2023-03-23T15:45:31;4.8;;;1.7;;
60718;SDS011;46567;51.660;5.824;2023-03-23T15:50:33;4.9;;;2.0;;
60718;SDS011;46567;51.660;5.824;2023-03-23T15:55:36;8.2;;;2.0;;
60718;SDS011;46567;51.660;5.824;2023-03-23T16:00:31;5.8;;;2.2;;
60718;SDS011;46567;51.660;5.824;2023-03-23T16:05:31;5.4;;;1.8;;
60718;SDS011;46567;51.660;5.824;2023-03-23T16:10:31;4.4;;;1.7;;
60718;SDS011;46567;51.660;5.824;2023-03-23T16:15:31;6.9;;;2.2;;
60718;SDS011;46567;51.660;5.824;2023-03-23T16:20:31;6.2;;;2.0;;
60718;SDS011;46567;51.660;5.824;2023-03-23T16:25:31;7.3;;;2.1;;
60718;SDS011;46567;51.660;5.824;2023-03-23T16:30:32;5.3;;;1.8;;
60718;SDS011;46567;51.660;5.824;2023-03-23T16:35:31;4.8;;;1.8;;
60718;SDS011;46567;51.660;5.824;2023-03-23T16:40:31;7.9;;;2.0;;
60718;SDS011;46567;51.660;5.824;2023-03-23T16:45:31;6.9;;;2.0;;
60718;SDS011;46567;51.660;5.824;2023-03-23T16:50:31;6.6;;;2.5;;
60718;SDS011;46567;51.660;5.824;2023-03-23T16:55:31;6.5;;;2.0;;
60718;SDS011;46567;51.660;5.824;2023-03-23T17:00:31;6.5;;;1.9;;
60718;SDS011;46567;51.660;5.824;2023-03-23T17:05:31;6.7;;;1.9;;
60718;SDS011;46567;51.660;5.824;2023-03-23T17:10:31;5.1;;;2.1;;
60718;SDS011;46567;51.660;5.824;2023-03-23T17:15:31;4.7;;;2.1;;
60718;SDS011;46567;51.660;5.824;2023-03-23T17:20:31;7.9;;;2.7;;
60718;SDS011;46567;51.660;5.824;2023-03-23T17:25:31;9.8;;;2.7;;
60718;SDS011;46567;51.660;5.824;2023-03-23T17:30:31;5.3;;;2.0;;
60718;SDS011;46567;51.660;5.824;2023-03-23T17:35:31;6.0;;;2.2;;
60718;SDS011;46567;51.660;5.824;2023-03-23T17:40:31;7.3;;;2.4;;
60718;SDS011;46567;51.660;5.824;2023-03-23T17:45:31;7.6;;;2.9;;
60718;SDS011;46567;51.660;5.824;2023-03-23T17:50:31;9.9;;;2.7;;
60718;SDS011;46567;51.660;5.824;2023-03-23T17:55:31;5.2;;;2.0;;
60718;SDS011;46567;51.660;5.824;2023-03-23T18:00:31;6.8;;;2.3;;
60718;SDS011;46567;51.660;5.824;2023-03-23T18:05:31;6.9;;;2.1;;
60718;SDS011;46567;51.660;5.824;2023-03-23T18:10:31;6.2;;;2.4;;
60718;SDS011;46567;51.660;5.824;2023-03-23T18:15:31;7.1;;;2.3;;
60718;SDS011;46567;51.660;5.824;2023-03-23T18:20:31;5.0;;;2.2;;
60718;SDS011;46567;51.660;5.824;2023-03-23T18:25:31;5.4;;;2.1;;
60718;SDS011;46567;51.660;5.824;2023-03-23T18:30:31;7.1;;;2.2;;
60718;SDS011;46567;51.660;5.824;2023-03-23T18:35:31;8.5;;;2.4;;
60718;SDS011;46567;51.660;5.824;2023-03-23T18:40:31;7.9;;;2.7;;
60718;SDS011;46567;51.660;5.824;2023-03-23T18:45:31;6.8;;;2.3;;
60718;SDS011;46567;51.660;5.824;2023-03-23T18:50:31;7.3;;;2.5;;
60718;SDS011;46567;51.660;5.824;2023-03-23T18:55:31;4.2;;;2.0;;
60718;SDS011;46567;51.660;5.824;2023-03-23T19:00:31;5.2;;;2.1;;
60718;SDS011;46567;51.660;5.824;2023-03-23T19:05:31;6.3;;;2.2;;
60718;SDS011;46567;51.660;5.824;2023-03-23T19:10:31;7.9;;;2.3;;
60718;SDS011;46567;51.660;5.824;2023-03-23T19:15:31;5.0;;;2.3;;
60718;SDS011;46567;51.660;5.824;2023-03-23T19:20:31;5.9;;;2.1;;
60718;SDS011;46567;51.660;5.824;2023-03-23T19:25:31;6.0;;;2.0;;
60718;SDS011;46567;51.660;5.824;2023-03-23T19:30:31;5.2;;;2.5;;
60718;SDS011;46567;51.660;5.824;2023-03-23T19:35:31;4.5;;;2.4;;
60718;SDS011;46567;51.660;5.824;2023-03-23T19:40:31;5.9;;;2.1;;
60718;SDS011;46567;51.660;5.824;2023-03-23T19:45:31;7.4;;;2.5;;
60718;SDS011;46567;51.660;5.824;2023-03-23T19:50:31;6.2;;;2.7;;
60718;SDS011;46567;51.660;5.824;2023-03-23T19:55:31;7.6;;;2.2;;
60718;SDS011;46567;51.660;5.824;2023-03-23T20:00:31;6.7;;;2.4;;
60718;SDS011;46567;51.660;5.824;2023-03-23T20:05:31;9.4;;;2.5;;
60718;SDS011;46567;51.660;5.824;2023-03-23T20:10:31;5.0;;;2.1;;
60718;SDS011;46567;51.660;5.824;2023-03-23T20:15:31;4.4;;;2.2;;
60718;SDS011;46567;51.660;5.824;2023-03-23T20:20:31;6.6;;;2.5;;
60718;SDS011;46567;51.660;5.824;2023-03-23T20:25:31;5.9;;;2.3;;
60718;SDS011;46567;51.660;5.824;2023-03-23T20:30:31;5.5;;;2.1;;
60718;SDS011;46567;51.660;5.824;2023-03-23T20:35:31;5.3;;;2.5;;
60718;SDS011;46567;51.660;5.824;2023-03-23T20:40:31;4.2;;;1.9;;
60718;SDS011;46567;51.660;5.824;2023-03-23T20:45:31;4.8;;;2.2;;
60718;SDS011;46567;51.660;5.824;2023-03-23T20:50:31;4.6;;;2.0;;
60718;SDS011;46567;51.660;5.824;2023-03-23T20:55:31;5.1;;;2.6;;
60718;SDS011;46567;51.660;5.824;2023-03-23T21:00:31;5.6;;;2.0;;
60718;SDS011;46567;51.660;5.824;2023-03-23T21:05:31;4.8;;;2.0;;
60718;SDS011;46567;51.660;5.824;2023-03-23T21:10:31;6.6;;;2.1;;
60718;SDS011;46567;51.660;5.824;2023-03-23T21:15:32;4.7;;;1.9;;
60718;SDS011;46567;51.660;5.824;2023-03-23T21:20:48;7.7;;;2.2;;
60718;SDS011;46567;51.660;5.824;2023-03-23T21:25:31;4.3;;;2.0;;
60718;SDS011;46567;51.660;5.824;2023-03-23T21:30:31;6.5;;;2.1;;
60718;SDS011;46567;51.660;5.824;2023-03-23T21:35:31;4.3;;;2.0;;
60718;SDS011;46567;51.660;5.824;2023-03-23T21:40:31;4.8;;;1.9;;
60718;SDS011;46567;51.660;5.824;2023-03-23T21:45:31;4.0;;;2.1;;
60718;SDS011;46567;51.660;5.824;2023-03-23T21:50:31;3.2;;;1.7;;
60718;SDS011;46567;51.660;5.824;2023-03-23T21:55:31;4.2;;;1.7;;
60718;SDS011;46567;51.660;5.824;2023-03-23T22:00:31;3.9;;;1.6;;
60718;SDS011;46567;51.660;5.824;2023-03-23T22:05:31;4.1;;;1.7;;
60718;SDS011;46567;51.660;5.824;2023-03-23T22:10:31;3.4;;;1.7;;
60718;SDS011;46567;51.660;5.824;2023-03-23T22:15:31;5.6;;;1.9;;
60718;SDS011;46567;51.660;5.824;2023-03-23T22:20:31;5.8;;;2.0;;
60718;SDS011;46567;51.660;5.824;2023-03-23T22:25:31;4.2;;;1.8;;
60718;SDS011;46567;51.660;5.824;2023-03-23T22:30:31;5.1;;;1.9;;
60718;SDS011;46567;51.660;5.824;2023-03-23T22:35:31;4.0;;;1.7;;
60718;SDS011;46567;51.660;5.824;2023-03-23T22:40:31;4.7;;;1.8;;
60718;SDS011;46567;51.660;5.824;2023-03-23T22:45:31;5.3;;;1.7;;
60718;SDS011;46567;51.660;5.824;2023-03-23T22:50:31;3.3;;;1.7;;
60718;SDS011;46567;51.660;5.824;2023-03-23T22:55:31;4.3;;;1.8;;
60718;SDS011;46567;51.660;5.824;2023-03-23T23:00:31;5.5;;;1.8;;
60718;SDS011;46567;51.660;5.824;2023-03-23T23:05:31;6.2;;;1.8;;
60718;SDS011;46567;51.660;5.824;2023-03-23T23:10:33;5.0;;;1.9;;
60718;SDS011;46567;51.660;5.824;2023-03-23T23:15:31;4.1;;;1.7;;
60718;SDS011;46567;51.660;5.824;2023-03-23T23:20:31;5.4;;;2.1;;
60718;SDS011;46567;51.660;5.824;2023-03-23T23:25:31;6.8;;;2.0;;
60718;SDS011;46567;51.660;5.824;2023-03-23T23:30:31;2.8;;;1.7;;
60718;SDS011;46567;51.660;5.824;2023-03-23T23:35:31;4.5;;;1.8;;
60718;SDS011;46567;51.660;5.824;2023-03-23T23:40:31;3.6;;;1.7;;
60718;SDS011;46567;51.660;5.824;2023-03-23T23:45:31;2.7;;;1.9;;
60718;SDS011;46567;51.660;5.824;2023-03-23T23:50:31;5.5;;;1.9;;
60718;SDS011;46567;51.660;5.824;2023-03-23T23:55:31;3.2;;;2.1;;
